Time;durP1;ratioP1;P1;durP2;ratioP2;P2;SDS_P1;SDS_P2;PMS_P1;PMS_P2;Temp;Humidity;BMP_temperature;BMP_pressure;BME280_temperature;BME280_humidity;BME280_pressure;Samples;Min_cycle;Max_cycle;Signal;HPM_P1;HPM_P2
2021/12/27 00:00:53;;;;;;;;;;;;;;;;;;5017017;28;20291;-31
2021/12/27 00:03:19;;;;;;;;;;;;;;;;;;5034731;28;20240;-32
2021/12/27 00:05:46;;;;;;;;;;;;;;;;;;5034433;28;20000;-26
2021/12/27 00:08:12;;;;;;;;;;;;;;;;;;5016928;28;20256;-31
2021/12/27 00:10:38;;;;;;;;;;;;;;;;;;5034612;28;19913;-29
2021/12/27 00:13:07;;;;;;;;;;;;;;;;;;5020394;28;20324;-29
2021/12/27 00:15:33;;;;;;;;;;;;;;;;;;5038214;28;20352;-35
2021/12/27 00:18:00;;;;;;;;;;;;;;;;;;5038285;28;20231;-32
2021/12/27 00:20:27;;;;;;;;;;;;;;;;;;5020591;28;19917;-31
2021/12/27 00:22:53;;;;;;;;;;;;;;;;;;5038013;28;19976;-29
2021/12/27 00:25:20;;;;;;;;;;;;;;;;;;5038255;28;19909;-31
2021/12/27 00:27:48;;;;;;;;;;;;;;;;;;5037981;28;20356;-33
2021/12/27 00:30:15;;;;;;;;;;;;;;;;;;5037911;28;19971;-29
2021/12/27 00:32:43;;;;;;;;;;;;;;;;;;5037855;28;20008;-29
2021/12/27 00:35:09;;;;;;;;;;;;;;;;;;5037793;28;19909;-29
2021/12/27 00:37:35;;;;;;;;;;;;;;;;;;5037865;28;19913;-29
2021/12/27 00:40:03;;;;;;;;;;;;;;;;;;5037793;28;19931;-32
2021/12/27 00:42:29;;;;;;;;;;;;;;;;;;5037683;28;19909;-31
2021/12/27 00:44:55;;;;;;;;;;;;;;;;;;5037920;28;20327;-35
2021/12/27 00:47:21;;;;;;;;;;;;;;;;;;5037599;28;19959;-27
2021/12/27 00:49:47;;;;;;;;;;;;;;;;;;5037519;28;19913;-29
2021/12/27 00:52:14;;;;;;;;;;;;;;;;;;5037901;28;19912;-32
2021/12/27 00:54:40;;;;;;;;;;;;;;;;;;5037572;28;20014;-29
2021/12/27 00:57:07;;;;;;;;;;;;;;;;;;5019892;28;19909;-30
2021/12/27 00:59:33;;;;;;;;;;;;;;;;;;5037698;28;19924;-35
2021/12/27 01:01:59;;;;;;;;;;;;;;;;;;5037572;28;19908;-30
2021/12/27 01:04:27;;;;;;;;;;;;;;;;;;5037303;28;20348;-28
2021/12/27 01:06:53;;;;;;;;;;;;;;;;;;5037543;28;19917;-28
2021/12/27 01:09:34;;;;;;;;;;;;;;;;;;5037210;28;19909;-29
2021/12/27 01:15:06;;;;;;;;;;;;;;;;;;5037229;28;19963;-31
2021/12/27 01:17:31;;;;;;;;;;;;;;;;;;5036819;28;20366;-31
2021/12/27 01:19:57;;;;;;;;;;;;;;;;;;5037008;28;19917;-34
2021/12/27 01:22:24;;;;;;;;;;;;;;;;;;5036677;28;19931;-30
2021/12/27 01:24:50;;;;;;;;;;;;;;;;;;5036532;28;20316;-32
2021/12/27 01:27:16;;;;;;;;;;;;;;;;;;5036806;28;20260;-35
2021/12/27 01:29:42;;;;;;;;;;;;;;;;;;5037147;28;19909;-33
2021/12/27 01:32:08;;;;;;;;;;;;;;;;;;5036788;28;19920;-29
2021/12/27 01:34:35;;;;;;;;;;;;;;;;;;5036802;28;20313;-36
2021/12/27 01:37:02;;;;;;;;;;;;;;;;;;5036858;28;19920;-35
2021/12/27 01:39:28;;;;;;;;;;;;;;;;;;5036585;28;19999;-28
2021/12/27 01:41:56;;;;;;;;;;;;;;;;;;5019196;28;19980;-32
2021/12/27 01:44:22;;;;;;;;;;;;;;;;;;5036639;28;19959;-31
2021/12/27 01:46:48;;;;;;;;;;;;;;;;;;5036785;28;20050;-29
2021/12/27 01:49:16;;;;;;;;;;;;;;;;;;5036237;28;19988;-29
2021/12/27 01:51:43;;;;;;;;;;;;;;;;;;5036752;28;19911;-31
2021/12/27 01:54:10;;;;;;;;;;;;;;;;;;5036418;28;19941;-30
2021/12/27 01:56:36;;;;;;;;;;;;;;;;;;5018928;28;19975;-27
2021/12/27 01:59:02;;;;;;;;;;;;;;;;;;5036101;28;19948;-35
2021/12/27 02:01:29;;;;;;;;;;;;;;;;;;5036577;28;19924;-34
2021/12/27 02:03:55;;;;;;;;;;;;;;;;;;5036229;28;20221;-32
2021/12/27 02:06:22;;;;;;;;;;;;;;;;;;5036377;28;19909;-29
2021/12/27 02:08:49;;;;;;;;;;;;;;;;;;5036038;28;19967;-31
2021/12/27 02:11:15;;;;;;;;;;;;;;;;;;5036313;28;19909;-30
2021/12/27 02:13:45;;;;;;;;;;;;;;;;;;5036074;28;20000;-26
2021/12/27 02:16:12;;;;;;;;;;;;;;;;;;5035937;28;19909;-32
2021/12/27 02:18:40;;;;;;;;;;;;;;;;;;5036048;28;20059;-29
2021/12/27 02:21:06;;;;;;;;;;;;;;;;;;5035899;28;19916;-29
2021/12/27 02:23:34;;;;;;;;;;;;;;;;;;5036152;28;20344;-28
2021/12/27 02:26:01;;;;;;;;;;;;;;;;;;5036036;28;20237;-30
2021/12/27 02:28:27;;;;;;;;;;;;;;;;;;5035845;28;20335;-29
2021/12/27 02:30:54;;;;;;;;;;;;;;;;;;5035920;28;20000;-34
2021/12/27 02:33:20;;;;;;;;;;;;;;;;;;5036956;28;20236;-30
2021/12/27 02:35:47;;;;;;;;;;;;;;;;;;5035409;28;20004;-33
2021/12/27 02:38:13;;;;;;;;;;;;;;;;;;5035453;28;19909;-31
2021/12/27 02:40:39;;;;;;;;;;;;;;;;;;5036069;28;20284;-29
2021/12/27 02:43:06;;;;;;;;;;;;;;;;;;5035546;28;20225;-29
2021/12/27 02:45:33;;;;;;;;;;;;;;;;;;5035356;28;19971;-29
2021/12/27 02:47:59;;;;;;;;;;;;;;;;;;5035252;28;19995;-35
2021/12/27 02:50:27;;;;;;;;;;;;;;;;;;5035114;28;19956;-30
2021/12/27 02:52:53;;;;;;;;;;;;;;;;;;5035335;28;19970;-33
2021/12/27 02:55:20;;;;;;;;;;;;;;;;;;5035262;28;19909;-29
2021/12/27 02:57:50;;;;;;;;;;;;;;;;;;5035288;28;20265;-30
2021/12/27 03:00:16;;;;;;;;;;;;;;;;;;5035396;28;20221;-31
2021/12/27 03:02:42;;;;;;;;;;;;;;;;;;5035468;28;19930;-29
2021/12/27 03:05:10;;;;;;;;;;;;;;;;;;5035172;28;19920;-29
2021/12/27 03:07:37;;;;;;;;;;;;;;;;;;5034998;28;19949;-38
2021/12/27 03:10:03;;;;;;;;;;;;;;;;;;5035260;28;19908;-33
2021/12/27 03:12:31;;;;;;;;;;;;;;;;;;5034986;28;19911;-31
2021/12/27 03:14:57;;;;;;;;;;;;;;;;;;5017409;28;19909;-29
2021/12/27 03:17:24;;;;;;;;;;;;;;;;;;5034895;28;19915;-30
2021/12/27 03:19:50;;;;;;;;;;;;;;;;;;5035071;28;19949;-32
2021/12/27 03:22:16;;;;;;;;;;;;;;;;;;5035060;28;20281;-32
2021/12/27 03:24:42;;;;;;;;;;;;;;;;;;5034779;28;19917;-33
2021/12/27 03:27:09;;;;;;;;;;;;;;;;;;5035013;28;20248;-32
2021/12/27 03:29:37;;;;;;;;;;;;;;;;;;5034797;28;19996;-34
2021/12/27 03:32:04;;;;;;;;;;;;;;;;;;5034884;28;19908;-32
2021/12/27 03:34:33;;;;;;;;;;;;;;;;;;5034747;28;19904;-28
2021/12/27 03:36:59;;;;;;;;;;;;;;;;;;5034568;28;19916;-32
2021/12/27 03:39:27;;;;;;;;;;;;;;;;;;5034530;28;19939;-30
2021/12/27 03:41:53;;;;;;;;;;;;;;;;;;5034602;28;20244;-33
2021/12/27 03:44:20;;;;;;;;;;;;;;;;;;5034816;28;20356;-33
2021/12/27 03:46:46;;;;;;;;;;;;;;;;;;5037916;28;19909;-28
2021/12/27 03:49:12;;;;;;;;;;;;;;;;;;5040776;28;19905;-28
2021/12/27 03:51:43;;;;;;;;;;;;;;;;;;5041081;28;19928;-34
2021/12/27 03:54:11;;;;;;;;;;;;;;;;;;5041313;28;19948;-30
2021/12/27 03:56:37;;;;;;;;;;;;;;;;;;5041046;28;20007;-31
2021/12/27 03:59:34;;;;;;;;;;;;;;;;;;5041182;28;19909;-31
2021/12/27 04:02:02;;;;;;;;;;;;;;;;;;5040976;28;19920;-29
2021/12/27 04:04:28;;;;;;;;;;;;;;;;;;5041230;28;19920;-28
2021/12/27 04:06:54;;;;;;;;;;;;;;;;;;5023403;28;19999;-32
2021/12/27 04:09:23;;;;;;;;;;;;;;;;;;5041215;28;19913;-31
2021/12/27 04:11:50;;;;;;;;;;;;;;;;;;5023441;28;19920;-29
2021/12/27 04:14:16;;;;;;;;;;;;;;;;;;5041148;28;20000;-31
2021/12/27 04:16:42;;;;;;;;;;;;;;;;;;5041165;28;19974;-29
2021/12/27 04:19:08;;;;;;;;;;;;;;;;;;5040703;28;19974;-32
2021/12/27 04:21:34;;;;;;;;;;;;;;;;;;5041153;28;19905;-30
2021/12/27 04:24:00;;;;;;;;;;;;;;;;;;5040734;28;19920;-30
2021/12/27 04:26:27;;;;;;;;;;;;;;;;;;5040756;28;19915;-32
2021/12/27 04:28:56;;;;;;;;;;;;;;;;;;5023151;28;19915;-29
2021/12/27 04:31:22;;;;;;;;;;;;;;;;;;5023321;28;19920;-29
2021/12/27 04:33:49;;;;;;;;;;;;;;;;;;5040749;28;20005;-30
2021/12/27 04:36:15;;;;;;;;;;;;;;;;;;5040925;28;20276;-30
2021/12/27 04:38:42;;;;;;;;;;;;;;;;;;5040551;28;19908;-31
2021/12/27 04:41:10;;;;;;;;;;;;;;;;;;5040540;28;19924;-29
2021/12/27 04:43:37;;;;;;;;;;;;;;;;;;5041426;28;19927;-33
2021/12/27 04:46:03;;;;;;;;;;;;;;;;;;5040493;28;19999;-30
2021/12/27 04:48:30;;;;;;;;;;;;;;;;;;5040422;28;19920;-28
2021/12/27 04:50:56;;;;;;;;;;;;;;;;;;5019292;28;19917;-32
2021/12/27 04:53:23;;;;;;;;;;;;;;;;;;5020638;28;19979;-29
2021/12/27 04:55:51;;;;;;;;;;;;;;;;;;5020553;28;19910;-29
2021/12/27 04:58:17;;;;;;;;;;;;;;;;;;5018646;28;20387;-28
2021/12/27 05:03:19;;;;;;;;;;;;;;;;;;5393113;23;20271;-26
2021/12/27 05:05:47;;;;;;;;;;;;;;;;;;5037343;28;19916;-25
2021/12/27 05:08:13;;;;;;;;;;;;;;;;;;5019841;28;19905;-25
2021/12/27 05:10:39;;;;;;;;;;;;;;;;;;5037380;28;19959;-24
2021/12/27 05:13:05;;;;;;;;;;;;;;;;;;5036630;28;19924;-25
2021/12/27 05:15:31;;;;;;;;;;;;;;;;;;5036793;28;19931;-26
2021/12/27 05:17:57;;;;;;;;;;;;;;;;;;5037229;28;20383;-26
2021/12/27 05:20:22;;;;;;;;;;;;;;;;;;5037023;28;20267;-25
2021/12/27 05:22:48;;;;;;;;;;;;;;;;;;5037090;28;19912;-26
2021/12/27 05:25:16;;;;;;;;;;;;;;;;;;5036931;28;19909;-25
2021/12/27 05:27:42;;;;;;;;;;;;;;;;;;5036811;28;19990;-26
2021/12/27 05:30:08;;;;;;;;;;;;;;;;;;5036284;28;19905;-26
2021/12/27 05:32:35;;;;;;;;;;;;;;;;;;5019284;28;19909;-26
2021/12/27 05:35:01;;;;;;;;;;;;;;;;;;5037211;28;19920;-26
2021/12/27 05:37:27;;;;;;;;;;;;;;;;;;5019221;28;19904;-26
2021/12/27 05:39:53;;;;;;;;;;;;;;;;;;5036395;28;19912;-26
2021/12/27 05:42:19;;;;;;;;;;;;;;;;;;5036357;28;19905;-26
2021/12/27 05:44:45;;;;;;;;;;;;;;;;;;5036024;28;19913;-25
2021/12/27 05:47:11;;;;;;;;;;;;;;;;;;5018724;28;19918;-26
2021/12/27 05:49:37;;;;;;;;;;;;;;;;;;5018900;28;19939;-27
2021/12/27 05:52:03;;;;;;;;;;;;;;;;;;5018640;28;19919;-27
2021/12/27 05:54:29;;;;;;;;;;;;;;;;;;5036262;28;19916;-27
2021/12/27 05:56:55;;;;;;;;;;;;;;;;;;5018633;28;20000;-27
2021/12/27 05:59:21;;;;;;;;;;;;;;;;;;5035849;28;19959;-27
2021/12/27 06:01:47;;;;;;;;;;;;;;;;;;5035669;28;19999;-27
2021/12/27 06:04:13;;;;;;;;;;;;;;;;;;5035774;28;19917;-27
2021/12/27 06:06:39;;;;;;;;;;;;;;;;;;5035871;28;20363;-27
2021/12/27 06:09:05;;;;;;;;;;;;;;;;;;5035745;28;20292;-27
2021/12/27 06:11:31;;;;;;;;;;;;;;;;;;5035971;28;19991;-27
2021/12/27 06:13:57;;;;;;;;;;;;;;;;;;5035529;28;19908;-27
2021/12/27 06:16:23;;;;;;;;;;;;;;;;;;5035816;28;19909;-27
2021/12/27 06:18:49;;;;;;;;;;;;;;;;;;5035449;28;19936;-26
2021/12/27 06:21:15;;;;;;;;;;;;;;;;;;5035282;28;20034;-26
2021/12/27 06:23:41;;;;;;;;;;;;;;;;;;5035310;28;19905;-26
2021/12/27 06:26:07;;;;;;;;;;;;;;;;;;5035288;28;19913;-25
2021/12/27 06:28:34;;;;;;;;;;;;;;;;;;5035710;28;19971;-26
2021/12/27 06:31:00;;;;;;;;;;;;;;;;;;5035293;28;19966;-25
2021/12/27 06:33:26;;;;;;;;;;;;;;;;;;5035054;28;19913;-25
2021/12/27 06:35:52;;;;;;;;;;;;;;;;;;5035251;28;19920;-25
2021/12/27 06:38:18;;;;;;;;;;;;;;;;;;5034794;28;19919;-26
2021/12/27 06:40:44;;;;;;;;;;;;;;;;;;5034974;28;19905;-26
2021/12/27 06:43:10;;;;;;;;;;;;;;;;;;5035081;28;19909;-27
2021/12/27 06:45:41;;;;;;;;;;;;;;;;;;5035119;28;19936;-25
2021/12/27 06:48:08;;;;;;;;;;;;;;;;;;5034869;28;19905;-24
2021/12/27 06:50:35;;;;;;;;;;;;;;;;;;5034865;28;19995;-25
2021/12/27 06:53:01;;;;;;;;;;;;;;;;;;5034773;28;20258;-25
2021/12/27 06:55:27;;;;;;;;;;;;;;;;;;5035009;28;19975;-25
2021/12/27 06:57:53;;;;;;;;;;;;;;;;;;5034861;28;20000;-26
2021/12/27 07:00:19;;;;;;;;;;;;;;;;;;5034869;28;19921;-26
2021/12/27 07:02:45;;;;;;;;;;;;;;;;;;5034767;28;19952;-26
2021/12/27 07:05:12;;;;;;;;;;;;;;;;;;5035248;28;19909;-26
2021/12/27 07:07:39;;;;;;;;;;;;;;;;;;5035034;28;20251;-26
2021/12/27 07:10:08;;;;;;;;;;;;;;;;;;5034749;28;20348;-26
2021/12/27 07:12:34;;;;;;;;;;;;;;;;;;5033820;28;19986;-26
2021/12/27 07:15:01;;;;;;;;;;;;;;;;;;5034334;28;19916;-25
2021/12/27 07:17:29;;;;;;;;;;;;;;;;;;5034288;28;19905;-25
2021/12/27 07:19:55;;;;;;;;;;;;;;;;;;5016535;28;19912;-26
2021/12/27 07:22:21;;;;;;;;;;;;;;;;;;5033372;28;19905;-26
2021/12/27 07:24:47;;;;;;;;;;;;;;;;;;5016641;28;19905;-27
2021/12/27 07:27:13;;;;;;;;;;;;;;;;;;5034158;28;19909;-27
2021/12/27 07:29:39;;;;;;;;;;;;;;;;;;5034313;28;20246;-27
2021/12/27 07:32:05;;;;;;;;;;;;;;;;;;5034019;28;19992;-27
2021/12/27 07:34:31;;;;;;;;;;;;;;;;;;5034121;28;19909;-26
2021/12/27 07:36:57;;;;;;;;;;;;;;;;;;5034407;28;19905;-26
2021/12/27 07:39:23;;;;;;;;;;;;;;;;;;5034281;28;19944;-27
2021/12/27 07:41:49;;;;;;;;;;;;;;;;;;5034535;28;20221;-27
2021/12/27 07:44:15;;;;;;;;;;;;;;;;;;5034527;28;20351;-26
2021/12/27 07:46:42;;;;;;;;;;;;;;;;;;5034309;28;20023;-27
2021/12/27 07:49:08;;;;;;;;;;;;;;;;;;5034623;28;19995;-26
2021/12/27 07:51:34;;;;;;;;;;;;;;;;;;5016784;28;20419;-26
2021/12/27 07:54:00;;;;;;;;;;;;;;;;;;5016821;28;19905;-26
2021/12/27 07:56:26;;;;;;;;;;;;;;;;;;5034401;28;19960;-26
2021/12/27 07:58:52;;;;;;;;;;;;;;;;;;5034464;28;20038;-25
2021/12/27 08:01:18;;;;;;;;;;;;;;;;;;5034213;28;19952;-26
2021/12/27 08:03:44;;;;;;;;;;;;;;;;;;5034042;28;19967;-26
2021/12/27 08:06:10;;;;;;;;;;;;;;;;;;5034189;28;19909;-26
2021/12/27 08:08:36;;;;;;;;;;;;;;;;;;5016821;28;19908;-26
2021/12/27 08:11:02;;;;;;;;;;;;;;;;;;5016954;28;19917;-26
2021/12/27 08:13:29;;;;;;;;;;;;;;;;;;5034185;28;19917;-27
2021/12/27 08:15:55;;;;;;;;;;;;;;;;;;5034179;28;19913;-28
2021/12/27 08:18:21;;;;;;;;;;;;;;;;;;5034164;28;19976;-27
2021/12/27 08:20:48;;;;;;;;;;;;;;;;;;5016667;28;20255;-26
2021/12/27 08:23:14;;;;;;;;;;;;;;;;;;5033808;28;19932;-25
2021/12/27 08:25:40;;;;;;;;;;;;;;;;;;5034143;28;19909;-26
2021/12/27 08:28:06;;;;;;;;;;;;;;;;;;5034363;28;19909;-26
2021/12/27 08:30:35;;;;;;;;;;;;;;;;;;5034127;28;20213;-26
2021/12/27 08:33:01;;;;;;;;;;;;;;;;;;5035847;28;19916;-26
2021/12/27 08:35:27;;;;;;;;;;;;;;;;;;5037857;28;19919;-26
2021/12/27 08:37:56;;;;;;;;;;;;;;;;;;5037685;28;19909;-26
2021/12/27 08:40:24;;;;;;;;;;;;;;;;;;5037983;28;20319;-26
2021/12/27 08:42:50;;;;;;;;;;;;;;;;;;5037520;28;20275;-26
2021/12/27 08:45:19;;;;;;;;;;;;;;;;;;5037688;28;19917;-26
2021/12/27 08:47:45;;;;;;;;;;;;;;;;;;5037710;28;20251;-26
2021/12/27 08:50:12;;;;;;;;;;;;;;;;;;5037717;28;20283;-26
2021/12/27 08:52:41;;;;;;;;;;;;;;;;;;5037370;28;19909;-27
2021/12/27 08:55:11;;;;;;;;;;;;;;;;;;5037717;28;19909;-26
2021/12/27 08:57:37;;;;;;;;;;;;;;;;;;5037100;28;20007;-26
2021/12/27 09:00:03;;;;;;;;;;;;;;;;;;5037514;28;19995;-26
2021/12/27 09:02:29;;;;;;;;;;;;;;;;;;5037022;28;19916;-26
2021/12/27 09:04:55;;;;;;;;;;;;;;;;;;5037501;28;19912;-26
2021/12/27 09:07:23;;;;;;;;;;;;;;;;;;5037065;28;19905;-26
2021/12/27 09:09:49;;;;;;;;;;;;;;;;;;5037434;28;19909;-26
2021/12/27 09:12:15;;;;;;;;;;;;;;;;;;5036946;28;20267;-26
2021/12/27 09:14:41;;;;;;;;;;;;;;;;;;5036619;28;19952;-26
2021/12/27 09:17:07;;;;;;;;;;;;;;;;;;5036574;28;19911;-26
2021/12/27 09:19:35;;;;;;;;;;;;;;;;;;5036850;28;19913;-26
2021/12/27 09:22:01;;;;;;;;;;;;;;;;;;5036776;28;19963;-26
2021/12/27 09:24:28;;;;;;;;;;;;;;;;;;5037126;28;20394;-26
2021/12/27 09:26:56;;;;;;;;;;;;;;;;;;5036540;28;19908;-26
2021/12/27 09:29:24;;;;;;;;;;;;;;;;;;5036704;28;20241;-25
2021/12/27 09:31:50;;;;;;;;;;;;;;;;;;5036621;28;20351;-26
2021/12/27 09:34:18;;;;;;;;;;;;;;;;;;5036586;28;19937;-24
2021/12/27 09:36:44;;;;;;;;;;;;;;;;;;5019220;28;19909;-26
2021/12/27 09:39:11;;;;;;;;;;;;;;;;;;5018887;28;20334;-26
2021/12/27 09:41:37;;;;;;;;;;;;;;;;;;5036284;28;19916;-27
2021/12/27 09:44:04;;;;;;;;;;;;;;;;;;5017753;28;20013;-26
2021/12/27 09:46:30;;;;;;;;;;;;;;;;;;5036073;28;19905;-26
2021/12/27 09:48:58;;;;;;;;;;;;;;;;;;5036339;28;19919;-26
2021/12/27 09:51:26;;;;;;;;;;;;;;;;;;5018446;28;19977;-25
2021/12/27 09:53:52;;;;;;;;;;;;;;;;;;5035598;28;19951;-26
2021/12/27 09:56:20;;;;;;;;;;;;;;;;;;5035609;28;19905;-26
2021/12/27 09:58:47;;;;;;;;;;;;;;;;;;5035833;28;19920;-26
2021/12/27 10:01:13;;;;;;;;;;;;;;;;;;5035968;28;20277;-25
2021/12/27 10:03:39;;;;;;;;;;;;;;;;;;5035398;28;19925;-26
2021/12/27 10:06:05;;;;;;;;;;;;;;;;;;5035764;28;19931;-26
2021/12/27 10:08:31;;;;;;;;;;;;;;;;;;5035345;28;19909;-24
2021/12/27 10:10:58;;;;;;;;;;;;;;;;;;5035403;28;20004;-25
2021/12/27 10:13:25;;;;;;;;;;;;;;;;;;5035064;28;19909;-24
2021/12/27 10:15:53;;;;;;;;;;;;;;;;;;5035485;28;19927;-25
2021/12/27 10:18:19;;;;;;;;;;;;;;;;;;5035173;28;19913;-25
2021/12/27 10:20:46;;;;;;;;;;;;;;;;;;5035113;28;19913;-25
2021/12/27 10:23:18;;;;;;;;;;;;;;;;;;5035146;28;19909;-26
2021/12/27 10:25:47;;;;;;;;;;;;;;;;;;5035246;28;19909;-26
2021/12/27 10:28:13;;;;;;;;;;;;;;;;;;5035168;28;19913;-26
2021/12/27 10:30:39;;;;;;;;;;;;;;;;;;5018047;28;19916;-26
2021/12/27 10:33:05;;;;;;;;;;;;;;;;;;5034533;28;19928;-26
2021/12/27 10:35:31;;;;;;;;;;;;;;;;;;5016888;28;19905;-26
2021/12/27 10:37:59;;;;;;;;;;;;;;;;;;5034909;28;20044;-26
2021/12/27 10:40:25;;;;;;;;;;;;;;;;;;5035208;28;19909;-25
2021/12/27 10:42:54;;;;;;;;;;;;;;;;;;5017525;28;20104;-26
2021/12/27 10:45:20;;;;;;;;;;;;;;;;;;5035456;28;20004;-26
2021/12/27 10:47:46;;;;;;;;;;;;;;;;;;5035563;28;20216;-26
2021/12/27 10:50:13;;;;;;;;;;;;;;;;;;5034832;28;19909;-26
2021/12/27 10:55:34;;;;;;;;;;;;;;;;;;5034860;28;20356;-26
2021/12/27 10:58:00;;;;;;;;;;;;;;;;;;5034513;28;19976;-26
2021/12/27 11:00:26;;;;;;;;;;;;;;;;;;5034722;28;19919;-26
2021/12/27 11:03:02;;;;;;;;;;;;;;;;;;5034224;28;20315;-25
2021/12/27 11:05:28;;;;;;;;;;;;;;;;;;5034443;28;19909;-25
2021/12/27 11:08:00;;;;;;;;;;;;;;;;;;5034784;28;19916;-25
2021/12/27 11:10:26;;;;;;;;;;;;;;;;;;5034801;28;19917;-25
2021/12/27 11:12:59;;;;;;;;;;;;;;;;;;5034606;28;20293;-26
2021/12/27 11:15:26;;;;;;;;;;;;;;;;;;5034714;28;19970;-26
2021/12/27 11:17:52;;;;;;;;;;;;;;;;;;5034833;28;19909;-26
2021/12/27 11:20:19;;;;;;;;;;;;;;;;;;5034492;28;19913;-26
2021/12/27 11:22:46;;;;;;;;;;;;;;;;;;5034139;28;20362;-26
2021/12/27 11:25:12;;;;;;;;;;;;;;;;;;5034392;28;19912;-26
2021/12/27 11:27:40;;;;;;;;;;;;;;;;;;5034389;28;19959;-26
2021/12/27 11:30:09;;;;;;;;;;;;;;;;;;5034583;28;19985;-25
2021/12/27 11:32:36;;;;;;;;;;;;;;;;;;5034039;28;19975;-26
2021/12/27 11:35:04;;;;;;;;;;;;;;;;;;5034041;28;20369;-26
2021/12/27 11:37:32;;;;;;;;;;;;;;;;;;5034321;28;19905;-25
2021/12/27 11:40:00;;;;;;;;;;;;;;;;;;5034215;28;19941;-26
2021/12/27 11:42:26;;;;;;;;;;;;;;;;;;5034071;28;20291;-26
2021/12/27 11:44:53;;;;;;;;;;;;;;;;;;5034216;28;20315;-26
2021/12/27 11:47:19;;;;;;;;;;;;;;;;;;5016795;28;19916;-26
2021/12/27 11:49:46;;;;;;;;;;;;;;;;;;5034293;28;19917;-26
2021/12/27 11:52:15;;;;;;;;;;;;;;;;;;5034468;28;19919;-26
2021/12/27 11:54:43;;;;;;;;;;;;;;;;;;5034113;28;19909;-26
2021/12/27 11:57:09;;;;;;;;;;;;;;;;;;5034247;28;19909;-25
2021/12/27 11:59:36;;;;;;;;;;;;;;;;;;5016467;28;19924;-25
2021/12/27 12:02:06;;;;;;;;;;;;;;;;;;5033828;28;19939;-26
2021/12/27 12:04:32;;;;;;;;;;;;;;;;;;5033498;28;19917;-27
2021/12/27 12:06:58;;;;;;;;;;;;;;;;;;5033796;28;19916;-26
2021/12/27 12:09:24;;;;;;;;;;;;;;;;;;5037937;28;20407;-26
2021/12/27 12:28:53;;;;;;;;;;;;;;;;;;5036827;28;19916;-26
2021/12/27 12:31:19;;;;;;;;;;;;;;;;;;5037079;28;20247;-26
2021/12/27 12:33:45;;;;;;;;;;;;;;;;;;5036961;28;19919;-26
2021/12/27 12:36:13;;;;;;;;;;;;;;;;;;5019236;28;20064;-26
2021/12/27 12:38:39;;;;;;;;;;;;;;;;;;5037491;28;20346;-25
2021/12/27 12:41:07;;;;;;;;;;;;;;;;;;5037656;28;19933;-26
2021/12/27 12:43:36;;;;;;;;;;;;;;;;;;5037436;28;19992;-25
2021/12/27 12:46:02;;;;;;;;;;;;;;;;;;5019834;28;19919;-26
2021/12/27 12:48:28;;;;;;;;;;;;;;;;;;5019915;28;20316;-25
2021/12/27 12:50:56;;;;;;;;;;;;;;;;;;5037192;28;19933;-25
2021/12/27 12:53:25;;;;;;;;;;;;;;;;;;5037332;28;19909;-25
2021/12/27 12:55:51;;;;;;;;;;;;;;;;;;5037394;28;19909;-25
2021/12/27 12:58:18;;;;;;;;;;;;;;;;;;5019531;28;20282;-25
2021/12/27 13:00:44;;;;;;;;;;;;;;;;;;5037267;28;20208;-25
2021/12/27 13:03:10;;;;;;;;;;;;;;;;;;5036887;28;19917;-25
2021/12/27 13:05:40;;;;;;;;;;;;;;;;;;5037310;28;19904;-25
2021/12/27 13:08:09;;;;;;;;;;;;;;;;;;5037265;28;19905;-26
2021/12/27 13:10:38;;;;;;;;;;;;;;;;;;5037241;28;19939;-25
2021/12/27 13:13:05;;;;;;;;;;;;;;;;;;5036652;28;19909;-25
2021/12/27 13:15:31;;;;;;;;;;;;;;;;;;5019255;28;20336;-25
2021/12/27 13:18:02;;;;;;;;;;;;;;;;;;5036836;28;19909;-25
2021/12/27 13:20:28;;;;;;;;;;;;;;;;;;5018073;28;19988;-26
2021/12/27 13:22:55;;;;;;;;;;;;;;;;;;5036767;28;19905;-26
2021/12/27 13:25:22;;;;;;;;;;;;;;;;;;5036815;28;19909;-26
2021/12/27 13:27:48;;;;;;;;;;;;;;;;;;5036734;28;19905;-26
2021/12/27 13:30:14;;;;;;;;;;;;;;;;;;5037308;28;19982;-26
2021/12/27 13:32:42;;;;;;;;;;;;;;;;;;5036774;28;19909;-26
2021/12/27 13:35:11;;;;;;;;;;;;;;;;;;5036536;28;19951;-26
2021/12/27 13:37:38;;;;;;;;;;;;;;;;;;5036444;28;19904;-26
2021/12/27 13:40:04;;;;;;;;;;;;;;;;;;5036527;28;19919;-26
2021/12/27 13:42:30;;;;;;;;;;;;;;;;;;5036523;28;19916;-26
2021/12/27 13:44:56;;;;;;;;;;;;;;;;;;5036776;28;19917;-26
2021/12/27 13:47:23;;;;;;;;;;;;;;;;;;5036630;28;19905;-26
2021/12/27 13:49:49;;;;;;;;;;;;;;;;;;5018989;28;19920;-26
2021/12/27 13:52:17;;;;;;;;;;;;;;;;;;5018851;28;20255;-26
2021/12/27 13:54:44;;;;;;;;;;;;;;;;;;5036412;28;19913;-25
2021/12/27 13:57:10;;;;;;;;;;;;;;;;;;5035949;28;19909;-25
2021/12/27 13:59:39;;;;;;;;;;;;;;;;;;5035865;28;19912;-25
2021/12/27 14:02:05;;;;;;;;;;;;;;;;;;5036063;28;19916;-25
2021/12/27 14:04:31;;;;;;;;;;;;;;;;;;5035912;28;20007;-26
2021/12/27 14:07:00;;;;;;;;;;;;;;;;;;5036139;28;19916;-26
2021/12/27 14:09:26;;;;;;;;;;;;;;;;;;5036324;28;20327;-25
2021/12/27 14:11:52;;;;;;;;;;;;;;;;;;5035978;28;19976;-26
2021/12/27 14:14:18;;;;;;;;;;;;;;;;;;5018446;28;20359;-25
2021/12/27 14:16:44;;;;;;;;;;;;;;;;;;5035727;28;19913;-25
2021/12/27 14:19:11;;;;;;;;;;;;;;;;;;5035608;28;20193;-26
2021/12/27 14:21:38;;;;;;;;;;;;;;;;;;5036306;28;19905;-25
2021/12/27 14:24:04;;;;;;;;;;;;;;;;;;5035822;28;19936;-26
2021/12/27 14:26:30;;;;;;;;;;;;;;;;;;5036085;28;19909;-25
2021/12/27 14:28:56;;;;;;;;;;;;;;;;;;5035811;28;19909;-25
2021/12/27 14:31:25;;;;;;;;;;;;;;;;;;5035332;28;19908;-25
2021/12/27 14:33:51;;;;;;;;;;;;;;;;;;5035375;28;19946;-26
2021/12/27 14:36:17;;;;;;;;;;;;;;;;;;5035256;28;19971;-25
2021/12/27 14:38:44;;;;;;;;;;;;;;;;;;5017581;28;20008;-26
2021/12/27 14:41:10;;;;;;;;;;;;;;;;;;5035655;28;19975;-26
2021/12/27 14:43:37;;;;;;;;;;;;;;;;;;5035510;28;20258;-25
2021/12/27 14:46:03;;;;;;;;;;;;;;;;;;5035404;28;19905;-25
2021/12/27 14:48:29;;;;;;;;;;;;;;;;;;5034992;28;19962;-26
2021/12/27 14:50:55;;;;;;;;;;;;;;;;;;5017274;28;19909;-26
2021/12/27 14:53:21;;;;;;;;;;;;;;;;;;5034964;28;19909;-26
2021/12/27 14:55:49;;;;;;;;;;;;;;;;;;5034995;28;19905;-26
2021/12/27 14:58:15;;;;;;;;;;;;;;;;;;5035077;28;20085;-25
2021/12/27 15:00:41;;;;;;;;;;;;;;;;;;5035032;28;19965;-26
2021/12/27 15:03:07;;;;;;;;;;;;;;;;;;5034362;28;20279;-25
2021/12/27 15:05:33;;;;;;;;;;;;;;;;;;5034984;28;19983;-26
2021/12/27 15:08:02;;;;;;;;;;;;;;;;;;5034636;28;19928;-26
2021/12/27 15:10:30;;;;;;;;;;;;;;;;;;5035213;28;19913;-26
2021/12/27 15:12:56;;;;;;;;;;;;;;;;;;5017083;28;19916;-25
2021/12/27 15:15:24;;;;;;;;;;;;;;;;;;5034346;28;19909;-25
2021/12/27 15:17:50;;;;;;;;;;;;;;;;;;5034407;28;19905;-25
2021/12/27 15:20:16;;;;;;;;;;;;;;;;;;5034460;28;19916;-25
2021/12/27 15:22:45;;;;;;;;;;;;;;;;;;5016875;28;19911;-25
2021/12/27 15:25:11;;;;;;;;;;;;;;;;;;5016876;28;19909;-25
2021/12/27 15:27:37;;;;;;;;;;;;;;;;;;5034825;28;19943;-25
2021/12/27 15:30:04;;;;;;;;;;;;;;;;;;5016732;28;19913;-25
2021/12/27 15:32:31;;;;;;;;;;;;;;;;;;5034228;28;20313;-26
2021/12/27 15:34:58;;;;;;;;;;;;;;;;;;5034391;28;19909;-25
2021/12/27 15:37:24;;;;;;;;;;;;;;;;;;5034198;28;19905;-25
2021/12/27 15:39:50;;;;;;;;;;;;;;;;;;5033995;28;19913;-25
2021/12/27 15:42:18;;;;;;;;;;;;;;;;;;5034303;28;20362;-26
2021/12/27 15:44:44;;;;;;;;;;;;;;;;;;5017011;28;19909;-26
2021/12/27 15:47:10;;;;;;;;;;;;;;;;;;5034287;28;19915;-25
2021/12/27 15:49:38;;;;;;;;;;;;;;;;;;5034334;28;19981;-25
2021/12/27 15:52:04;;;;;;;;;;;;;;;;;;5016666;28;19990;-26
2021/12/27 15:54:31;;;;;;;;;;;;;;;;;;5033903;28;19963;-26
2021/12/27 15:57:01;;;;;;;;;;;;;;;;;;5033772;28;19905;-25
2021/12/27 15:59:31;;;;;;;;;;;;;;;;;;5033468;28;19920;-26
2021/12/27 16:01:57;;;;;;;;;;;;;;;;;;5033529;28;19905;-26
2021/12/27 16:04:24;;;;;;;;;;;;;;;;;;5033609;28;20149;-26
2021/12/27 16:06:51;;;;;;;;;;;;;;;;;;5033645;28;19905;-25
2021/12/27 16:09:17;;;;;;;;;;;;;;;;;;5033774;28;19941;-26
2021/12/27 16:11:44;;;;;;;;;;;;;;;;;;5033538;28;19916;-27
2021/12/27 16:14:11;;;;;;;;;;;;;;;;;;5033716;28;19931;-25
2021/12/27 16:16:41;;;;;;;;;;;;;;;;;;5033413;28;19920;-26
2021/12/27 16:19:07;;;;;;;;;;;;;;;;;;5033620;28;20347;-25
2021/12/27 16:21:33;;;;;;;;;;;;;;;;;;5033943;28;20020;-25
2021/12/27 16:24:01;;;;;;;;;;;;;;;;;;5033747;28;20311;-26
2021/12/27 16:26:27;;;;;;;;;;;;;;;;;;5033704;28;20008;-26
2021/12/27 16:28:53;;;;;;;;;;;;;;;;;;5034163;28;19959;-25
2021/12/27 16:31:19;;;;;;;;;;;;;;;;;;5034324;28;19976;-25
2021/12/27 16:33:45;;;;;;;;;;;;;;;;;;5033565;28;19985;-25
2021/12/27 16:36:11;;;;;;;;;;;;;;;;;;5016365;28;19905;-29
2021/12/27 16:38:37;;;;;;;;;;;;;;;;;;5033843;28;19921;-25
2021/12/27 16:41:03;;;;;;;;;;;;;;;;;;5033854;28;19908;-25
2021/12/27 16:43:30;;;;;;;;;;;;;;;;;;5033713;28;19911;-25
2021/12/27 16:45:56;;;;;;;;;;;;;;;;;;5016179;28;20237;-25
2021/12/27 16:48:23;;;;;;;;;;;;;;;;;;5033866;28;19959;-26
2021/12/27 16:50:49;;;;;;;;;;;;;;;;;;5033725;28;19954;-26
2021/12/27 16:53:15;;;;;;;;;;;;;;;;;;5034116;28;20278;-25
2021/12/27 16:55:42;;;;;;;;;;;;;;;;;;5037482;28;19909;-31
2021/12/27 16:58:08;;;;;;;;;;;;;;;;;;5037480;28;20223;-25
2021/12/27 17:00:34;;;;;;;;;;;;;;;;;;5037262;28;19909;-25
2021/12/27 17:03:00;;;;;;;;;;;;;;;;;;5037037;28;19917;-26
2021/12/27 17:05:26;;;;;;;;;;;;;;;;;;5037312;28;19944;-25
2021/12/27 17:07:52;;;;;;;;;;;;;;;;;;5037247;28;19924;-25